createdAt,value
2019-05-09T00:00:36.203Z,99424.09
2019-05-09T00:03:05.829Z,99413.48
2019-05-09T00:05:35.259Z,99414.28
2019-05-09T00:08:04.683Z,99416.61
2019-05-09T00:10:39.426Z,99414.58
2019-05-09T00:13:05.195Z,99413.27
2019-05-09T00:15:34.641Z,99413.53
2019-05-09T00:18:04.158Z,99411.19
2019-05-09T00:20:35.157Z,99412.05
2019-05-09T00:23:04.599Z,99410.05
2019-05-09T00:25:34.101Z,99412.66
2019-05-09T00:28:04.385Z,99415.47
2019-05-09T00:30:54.010Z,99422.80
2019-05-09T00:33:24.546Z,99431.16
2019-05-09T00:35:53.936Z,99431.63
2019-05-09T00:38:24.962Z,99431.91
2019-05-09T00:40:58.615Z,99434.20
2019-05-09T00:43:25.475Z,99430.75
2019-05-09T00:46:04.161Z,99426.97
2019-05-09T00:51:14.033Z,99428.20
2019-05-09T00:53:44.378Z,99422.80
2019-05-09T00:56:13.615Z,99423.33
2019-05-09T00:58:44.090Z,99415.00
2019-05-09T01:01:14.661Z,99412.77
2019-05-09T01:03:43.995Z,99411.00
2019-05-09T01:06:13.591Z,99403.78
2019-05-09T01:08:44.180Z,99410.08
2019-05-09T01:11:15.585Z,99401.50
2019-05-09T01:13:44.771Z,99409.09
2019-05-09T01:16:14.134Z,99412.77
2019-05-09T01:18:43.808Z,99417.90
2019-05-09T01:21:13.523Z,99408.26
2019-05-09T01:23:43.748Z,99414.73
2019-05-09T01:26:13.423Z,99408.34
2019-05-09T01:28:44.225Z,99418.50
2019-05-09T01:31:13.342Z,99410.35
2019-05-09T01:33:49.984Z,99413.34
2019-05-09T01:36:18.832Z,99410.30
2019-05-09T01:38:47.603Z,99413.80
2019-05-09T01:41:27.974Z,99409.84
2019-05-09T01:43:48.003Z,99406.58
2019-05-09T01:46:18.032Z,99407.94
2019-05-09T01:48:46.861Z,99401.88
2019-05-09T01:51:16.303Z,99406.11
2019-05-09T01:53:47.321Z,99401.22
2019-05-09T01:56:16.697Z,99407.84
2019-05-09T01:58:46.089Z,99408.58
2019-05-09T02:01:14.907Z,99404.62
2019-05-09T02:03:44.459Z,99403.83
2019-05-09T02:06:13.762Z,99406.11
2019-05-09T02:08:43.824Z,99408.07
2019-05-09T02:11:13.555Z,99405.92
2019-05-09T02:13:44.249Z,99405.19
2019-05-09T02:16:15.056Z,99407.28
2019-05-09T02:21:38.980Z,99403.73
2019-05-09T02:24:07.825Z,99406.48
2019-05-09T02:26:37.189Z,99409.75
2019-05-09T02:29:06.624Z,99411.14
2019-05-09T02:31:35.607Z,99405.41
2019-05-09T02:34:05.234Z,99399.27
2019-05-09T02:36:34.172Z,99398.67
2019-05-09T02:39:03.019Z,99401.69
2019-05-09T02:41:31.778Z,99402.47
2019-05-09T02:44:01.210Z,99395.81
2019-05-09T02:46:49.205Z,99396.34
2019-05-09T02:49:19.058Z,99390.52
2019-05-09T02:51:48.943Z,99393.34
2019-05-09T02:54:19.067Z,99385.77
2019-05-09T02:56:49.290Z,99386.97
2019-05-09T02:59:19.961Z,99373.14
2019-05-09T03:01:58.535Z,99382.51
2019-05-09T03:04:28.595Z,99375.89
2019-05-09T03:06:59.611Z,99380.45
2019-05-09T03:09:28.945Z,99375.48
2019-05-09T03:11:59.260Z,99375.09
2019-05-09T03:14:29.601Z,99379.01
2019-05-09T03:16:58.945Z,99379.70
2019-05-09T03:19:29.824Z,99378.63
2019-05-09T03:22:10.058Z,99374.29
2019-05-09T03:24:39.666Z,99372.70
2019-05-09T03:27:10.682Z,99369.14
2019-05-09T03:32:33.264Z,99378.09
2019-05-09T03:35:02.713Z,99375.80
2019-05-09T03:37:32.078Z,99384.06
2019-05-09T03:40:01.459Z,99385.58
2019-05-09T03:42:43.060Z,99381.45
2019-05-09T03:45:02.122Z,99385.59
2019-05-09T03:50:24.489Z,99374.30
2019-05-09T03:52:53.854Z,99372.28
2019-05-09T03:55:24.869Z,99375.45
2019-05-09T03:58:01.880Z,99377.08
2019-05-09T04:00:31.347Z,99365.44
2019-05-09T04:03:00.804Z,99370.16
2019-05-09T04:05:30.188Z,99365.42
2019-05-09T04:08:22.690Z,99371.31
2019-05-09T04:10:53.272Z,99372.53
2019-05-09T04:13:24.774Z,99368.04
2019-05-09T04:15:54.225Z,99373.77
2019-05-09T04:18:23.652Z,99374.00
2019-05-09T04:20:53.071Z,99370.91
2019-05-09T04:23:22.488Z,99374.19
2019-05-09T04:26:08.865Z,99374.92
2019-05-09T04:28:39.946Z,99374.53
2019-05-09T04:31:09.385Z,99370.13
2019-05-09T04:33:38.854Z,99375.95
2019-05-09T04:36:08.461Z,99371.19
2019-05-09T04:38:39.900Z,99370.89
2019-05-09T04:41:09.087Z,99375.09
2019-05-09T04:43:40.090Z,99369.03
2019-05-09T04:46:12.904Z,99370.31
2019-05-09T04:48:40.645Z,99365.48
2019-05-09T04:51:10.401Z,99367.26
2019-05-09T04:53:40.116Z,99361.98
2019-05-09T04:56:17.630Z,99362.48
2019-05-09T04:58:48.159Z,99359.33
2019-05-09T05:01:19.810Z,99358.64
2019-05-09T05:03:50.925Z,99355.18
2019-05-09T05:06:20.813Z,99350.11
2019-05-09T05:08:50.312Z,99346.27
2019-05-09T05:11:19.767Z,99355.57
2019-05-09T05:13:49.207Z,99349.11
2019-05-09T05:16:18.599Z,99352.89
2019-05-09T05:18:47.979Z,99359.17
2019-05-09T05:21:19.945Z,99352.27
2019-05-09T05:23:50.058Z,99351.63
2019-05-09T05:26:21.213Z,99353.18
2019-05-09T05:28:50.644Z,99353.94
2019-05-09T05:31:20.018Z,99347.64
2019-05-09T05:33:54.165Z,99349.36
2019-05-09T05:36:24.091Z,99350.45
2019-05-09T05:38:53.462Z,99353.66
2019-05-09T05:41:22.919Z,99355.98
2019-05-09T05:43:52.305Z,99352.30
2019-05-09T05:46:23.332Z,99352.14
2019-05-09T05:48:54.386Z,99356.95
2019-05-09T05:51:23.776Z,99357.02
2019-05-09T05:53:53.180Z,99350.54
2019-05-09T05:56:22.559Z,99351.13
2019-05-09T05:58:52.002Z,99347.38
2019-05-09T06:01:21.445Z,99344.63
2019-05-09T06:03:50.902Z,99339.84
2019-05-09T06:06:20.307Z,99342.23
2019-05-09T06:08:49.669Z,99349.15
2019-05-09T06:11:19.086Z,99343.55
2019-05-09T06:13:57.296Z,99342.23
2019-05-09T06:16:22.270Z,99335.06
2019-05-09T06:18:52.585Z,99327.39
2019-05-09T06:21:22.449Z,99326.13
2019-05-09T06:23:53.330Z,99319.61
2019-05-09T06:26:22.716Z,99321.52
2019-05-09T06:28:52.093Z,99319.16
2019-05-09T06:31:21.521Z,99316.33
2019-05-09T06:33:53.503Z,99304.14
2019-05-09T06:36:22.698Z,99313.00
2019-05-09T06:38:52.387Z,99310.72
2019-05-09T06:41:21.929Z,99308.67
2019-05-09T06:44:13.138Z,99307.06
2019-05-09T06:46:31.768Z,99308.43
2019-05-09T06:49:23.308Z,99308.13
2019-05-09T06:51:33.926Z,99314.06
2019-05-09T06:54:03.347Z,99311.30
2019-05-09T06:56:32.830Z,99308.86
2019-05-09T06:59:02.255Z,99308.64
2019-05-09T07:01:37.590Z,99300.92
2019-05-09T07:04:14.790Z,99301.94
2019-05-09T07:06:51.840Z,99302.32
2019-05-09T07:09:27.839Z,99308.84
2019-05-09T07:11:58.599Z,99293.17
2019-05-09T07:14:32.995Z,99297.05
2019-05-09T07:17:01.001Z,99294.16
2019-05-09T07:19:30.482Z,99286.55
2019-05-09T07:22:18.382Z,99296.22
2019-05-09T07:25:09.870Z,99290.33
2019-05-09T07:27:40.003Z,99286.25
2019-05-09T07:30:29.184Z,99291.42
2019-05-09T07:33:03.331Z,99294.75
2019-05-09T07:35:32.934Z,99293.17
2019-05-09T07:38:02.400Z,99288.87
2019-05-09T07:40:31.911Z,99286.04
2019-05-09T07:43:01.338Z,99281.07
2019-05-09T07:45:30.934Z,99276.42
2019-05-09T07:48:00.411Z,99278.69
2019-05-09T07:50:29.994Z,99267.90
2019-05-09T07:52:59.458Z,99269.73
2019-05-09T07:55:28.946Z,99271.34
2019-05-09T07:57:59.264Z,99268.89
2019-05-09T08:00:38.192Z,99267.15
2019-05-09T08:03:09.225Z,99260.80
2019-05-09T08:05:38.656Z,99264.53
2019-05-09T08:08:11.099Z,99262.11
2019-05-09T08:10:40.583Z,99260.61
2019-05-09T08:13:11.991Z,99260.11
2019-05-09T08:15:41.791Z,99249.36
2019-05-09T08:18:12.070Z,99248.61
2019-05-09T08:20:41.554Z,99244.25
2019-05-09T08:23:11.012Z,99242.10
2019-05-09T08:25:40.481Z,99234.75
2019-05-09T08:28:09.925Z,99232.08
2019-05-09T08:30:40.229Z,99231.70
2019-05-09T08:33:10.318Z,99229.09
2019-05-09T08:35:40.999Z,99229.92
2019-05-09T08:38:10.471Z,99223.85
2019-05-09T08:40:42.727Z,99221.13
2019-05-09T08:43:12.328Z,99218.57
2019-05-09T08:45:41.949Z,99214.85
2019-05-09T08:48:11.507Z,99200.83
2019-05-09T08:50:47.914Z,99200.83
2019-05-09T08:53:18.874Z,99200.30
2019-05-09T08:55:48.009Z,99187.67
2019-05-09T08:58:19.545Z,99189.23
2019-05-09T09:00:49.214Z,99192.27
2019-05-09T09:03:18.816Z,99185.69
2019-05-09T09:05:50.939Z,99180.20
2019-05-09T09:08:22.559Z,99176.36
2019-05-09T09:10:52.042Z,99172.20
2019-05-09T09:13:24.411Z,99166.35
2019-05-09T09:16:12.120Z,99166.35
2019-05-09T09:18:25.186Z,99157.69
2019-05-09T09:20:54.807Z,99159.22
2019-05-09T09:23:39.040Z,99156.13
2019-05-09T09:25:58.818Z,99156.13
2019-05-09T09:28:31.576Z,99154.42
2019-05-09T09:31:00.857Z,99160.03
2019-05-09T09:33:30.584Z,99160.03
2019-05-09T09:36:00.142Z,99150.94
2019-05-09T09:38:30.979Z,99150.94
2019-05-09T09:41:00.740Z,99148.05
2019-05-09T09:43:30.082Z,99142.19
2019-05-09T09:46:10.936Z,99134.25
2019-05-09T09:48:35.280Z,99134.25
2019-05-09T09:51:04.770Z,99118.98
2019-05-09T09:53:34.767Z,99126.53
2019-05-09T09:56:04.315Z,99125.83
2019-05-09T09:58:33.748Z,99121.91
2019-05-09T10:01:20.134Z,99121.91
2019-05-09T10:03:51.132Z,99110.14
2019-05-09T10:06:20.955Z,99110.14
2019-05-09T10:08:50.320Z,99090.12
2019-05-09T10:11:20.081Z,99090.12
2019-05-09T10:13:51.911Z,99091.64
2019-05-09T10:16:29.055Z,99088.53
2019-05-09T10:19:00.680Z,99089.83
2019-05-09T10:21:40.615Z,99085.95
2019-05-09T10:24:10.339Z,99077.99
2019-05-09T10:26:41.110Z,99077.99
2019-05-09T10:29:10.652Z,99066.78
2019-05-09T10:31:40.174Z,99054.28
2019-05-09T10:34:11.764Z,99053.81
2019-05-09T10:36:42.592Z,99053.81
2019-05-09T10:39:13.717Z,99048.42
2019-05-09T10:41:43.155Z,99043.03
2019-05-09T10:44:14.163Z,99033.27
2019-05-09T10:46:53.652Z,99033.27
2019-05-09T10:49:15.820Z,99039.28
2019-05-09T10:51:44.964Z,99036.68
2019-05-09T10:54:14.264Z,99036.68
2019-05-09T10:56:43.452Z,99035.29
2019-05-09T10:59:12.649Z,99035.29
2019-05-09T11:01:44.579Z,99036.97
2019-05-09T11:04:13.846Z,99020.58
2019-05-09T11:06:43.570Z,99020.58
2019-05-09T11:09:12.963Z,99018.66
2019-05-09T11:11:42.312Z,99023.74
2019-05-09T11:14:32.128Z,99014.73
2019-05-09T11:17:07.825Z,99019.58
2019-05-09T11:19:28.529Z,99010.58
2019-05-09T11:22:03.345Z,99008.50
2019-05-09T11:24:42.915Z,99001.58
2019-05-09T11:27:08.298Z,99011.94
2019-05-09T11:29:34.520Z,99005.20
2019-05-09T11:32:03.819Z,98996.61
2019-05-09T11:34:33.016Z,98990.85
2019-05-09T11:37:02.153Z,98984.37
2019-05-09T11:39:36.631Z,98979.19
2019-05-09T11:42:02.539Z,98977.05
2019-05-09T11:44:33.275Z,98971.34
2019-05-09T11:47:02.496Z,98970.39
2019-05-09T11:49:38.970Z,98972.23
2019-05-09T11:52:08.373Z,98969.73
2019-05-09T11:54:43.187Z,98973.90
2019-05-09T11:57:20.030Z,98969.61
2019-05-09T11:59:58.063Z,98972.42
2019-05-09T12:02:28.939Z,98963.90
2019-05-09T12:05:02.192Z,98963.01
2019-05-09T12:07:33.445Z,98965.42
2019-05-09T12:10:07.874Z,98958.25
2019-05-09T12:12:38.941Z,98969.94
2019-05-09T12:15:10.894Z,98967.57
2019-05-09T12:17:56.064Z,98958.13
2019-05-09T12:20:13.709Z,98956.06
2019-05-09T12:22:48.330Z,98953.72
2019-05-09T12:25:19.595Z,98949.62
2019-05-09T12:27:51.668Z,98951.21
2019-05-09T12:30:21.445Z,98952.56
2019-05-09T12:32:50.667Z,98948.80
2019-05-09T12:35:20.103Z,98934.14
2019-05-09T12:37:49.337Z,98935.03
2019-05-09T12:40:20.122Z,98928.27
2019-05-09T12:42:51.934Z,98916.01
2019-05-09T12:45:21.133Z,98914.12
2019-05-09T12:48:06.467Z,98914.56
2019-05-09T12:50:24.329Z,98915.89
2019-05-09T12:52:58.114Z,98915.29
2019-05-09T12:55:27.645Z,98904.07
2019-05-09T12:57:59.432Z,98902.08
2019-05-09T13:00:28.472Z,98902.08
2019-05-09T13:02:59.421Z,98898.02
2019-05-09T13:05:30.336Z,98894.96
2019-05-09T13:08:01.789Z,98890.64
2019-05-09T13:10:30.478Z,98892.19
2019-05-09T13:12:59.929Z,98889.52
2019-05-09T13:15:31.582Z,98892.14
2019-05-09T13:18:02.998Z,98891.30
2019-05-09T13:20:35.318Z,98889.89
2019-05-09T13:23:08.917Z,98890.48
2019-05-09T13:25:38.526Z,98886.59
2019-05-09T13:28:08.386Z,98886.59
2019-05-09T13:30:38.160Z,98884.17
2019-05-09T13:33:10.730Z,98884.47
2019-05-09T13:35:40.726Z,98879.14
2019-05-09T13:38:10.382Z,98872.14
2019-05-09T13:40:39.868Z,98875.96
2019-05-09T13:43:09.444Z,98879.01
2019-05-09T13:45:38.914Z,98881.84
2019-05-09T13:48:26.413Z,98881.48
2019-05-09T13:50:39.679Z,98874.50
2019-05-09T13:53:09.108Z,98874.50
2019-05-09T13:55:38.526Z,98876.94
2019-05-09T13:58:08.120Z,98876.09
2019-05-09T14:00:54.856Z,98876.09
2019-05-09T14:03:11.791Z,98868.73
2019-05-09T14:05:41.382Z,98867.25
2019-05-09T14:08:11.713Z,98859.27
2019-05-09T14:10:41.400Z,98859.27
2019-05-09T14:13:14.151Z,98861.09
2019-05-09T14:15:44.279Z,98854.46
2019-05-09T14:18:13.897Z,98854.46
2019-05-09T14:20:43.323Z,98855.98
2019-05-09T14:23:12.805Z,98855.97
2019-05-09T14:25:42.195Z,98856.63
2019-05-09T14:28:11.633Z,98859.06
2019-05-09T14:30:50.111Z,98859.06
2019-05-09T14:33:19.612Z,98852.73
2019-05-09T14:35:49.394Z,98852.73
2019-05-09T14:38:18.930Z,98847.40
2019-05-09T14:40:48.411Z,98847.77
2019-05-09T14:43:18.571Z,98838.45
2019-05-09T14:45:48.416Z,98838.09
2019-05-09T14:48:18.940Z,98834.78
2019-05-09T14:50:49.546Z,98827.45
2019-05-09T14:53:19.409Z,98823.81
2019-05-09T14:55:48.886Z,98823.81
2019-05-09T14:58:18.390Z,98820.16
2019-05-09T15:00:49.473Z,98816.81
2019-05-09T15:03:19.858Z,98820.13
2019-05-09T15:05:49.583Z,98813.64
2019-05-09T15:08:19.221Z,98811.80
2019-05-09T15:10:51.569Z,98805.81
2019-05-09T15:13:21.175Z,98804.31
2019-05-09T15:15:50.656Z,98801.64
2019-05-09T15:18:20.058Z,98814.11
2019-05-09T15:20:49.558Z,98806.30
2019-05-09T15:23:19.638Z,98804.97
2019-05-09T15:25:49.422Z,98803.11
2019-05-09T15:28:18.929Z,98801.27
2019-05-09T15:30:49.009Z,98794.94
2019-05-09T15:33:18.474Z,98791.73
2019-05-09T15:35:50.973Z,98781.70
2019-05-09T15:38:22.418Z,98784.73
2019-05-09T15:40:51.639Z,98775.19
2019-05-09T15:43:21.129Z,98774.64
2019-05-09T15:45:52.199Z,98772.66
2019-05-09T15:48:21.641Z,98774.30
2019-05-09T15:50:50.996Z,98765.95
2019-05-09T15:53:20.691Z,98765.95
2019-05-09T15:55:50.088Z,98766.64
2019-05-09T15:58:19.501Z,98771.89
2019-05-09T16:00:49.150Z,98777.03
2019-05-09T16:03:18.794Z,98777.24
2019-05-09T16:05:51.660Z,98777.38
2019-05-09T16:08:21.138Z,98768.07
2019-05-09T16:10:50.505Z,98770.28
2019-05-09T16:13:19.908Z,98769.56
2019-05-09T16:15:49.320Z,98774.48
2019-05-09T16:18:18.789Z,98770.95
2019-05-09T16:20:48.806Z,98764.72
2019-05-09T16:23:18.557Z,98765.20
2019-05-09T16:25:48.132Z,98763.02
2019-05-09T16:28:18.543Z,98759.34
2019-05-09T16:30:48.429Z,98751.96
2019-05-09T16:33:18.368Z,98752.02
2019-05-09T16:35:48.804Z,98753.22
2019-05-09T16:38:19.104Z,98752.20
2019-05-09T16:40:48.513Z,98751.12
2019-05-09T16:43:17.961Z,98735.16
2019-05-09T16:45:47.935Z,98740.47
2019-05-09T16:48:18.487Z,98734.25
2019-05-09T16:51:00.418Z,98734.56
2019-05-09T16:53:19.448Z,98726.91
2019-05-09T16:55:48.851Z,98725.77
2019-05-09T16:58:18.868Z,98733.64
2019-05-09T17:00:50.260Z,98741.57
2019-05-09T17:03:19.706Z,98735.19
2019-05-09T17:06:10.179Z,98721.20
2019-05-09T17:08:40.829Z,98719.19
2019-05-09T17:11:10.591Z,98723.90
2019-05-09T17:13:40.011Z,98723.90
2019-05-09T17:16:09.569Z,98739.50
2019-05-09T17:18:39.224Z,98741.33
2019-05-09T17:21:21.495Z,98747.84
2019-05-09T17:23:48.159Z,98746.66
2019-05-09T17:26:18.477Z,98750.20
2019-05-09T17:28:48.478Z,98745.95
2019-05-09T17:31:19.782Z,98743.06
2019-05-09T17:37:11.274Z,98749.24
2019-05-09T17:39:45.951Z,98749.63
2019-05-09T17:42:38.118Z,98745.90
2019-05-09T17:45:11.744Z,98739.27
2019-05-09T17:47:44.394Z,98731.92
2019-05-09T17:50:22.077Z,98724.93
2019-05-09T17:52:47.984Z,98735.32
2019-05-09T17:55:18.174Z,98731.30
2019-05-09T17:57:48.169Z,98739.96
2019-05-09T18:00:21.689Z,98734.05
2019-05-09T18:02:49.390Z,98738.02
2019-05-09T18:05:19.198Z,98739.67
2019-05-09T18:07:49.554Z,98747.69
2019-05-09T18:10:20.696Z,98746.48
2019-05-09T18:12:50.363Z,98743.20
2019-05-09T18:15:20.201Z,98743.42
2019-05-09T18:17:49.731Z,98741.48
2019-05-09T18:20:19.252Z,98737.63
2019-05-09T18:22:50.599Z,98739.55
2019-05-09T18:25:20.130Z,98740.26
2019-05-09T18:27:49.479Z,98739.30
2019-05-09T18:30:19.275Z,98738.73
2019-05-09T18:32:58.833Z,98739.92
2019-05-09T18:35:29.596Z,98740.83
2019-05-09T18:37:59.374Z,98739.14
2019-05-09T18:40:29.054Z,98733.72
2019-05-09T18:42:58.570Z,98734.71
2019-05-09T18:45:28.502Z,98739.02
2019-05-09T18:47:58.259Z,98748.28
2019-05-09T18:50:27.741Z,98747.24
2019-05-09T18:52:58.651Z,98747.94
2019-05-09T18:55:28.358Z,98749.68
2019-05-09T18:57:57.828Z,98744.89
2019-05-09T19:00:27.854Z,98747.33
2019-05-09T19:02:57.572Z,98754.34
2019-05-09T19:05:27.124Z,98760.36
2019-05-09T19:07:58.435Z,98756.39
2019-05-09T19:10:28.271Z,98758.55
2019-05-09T19:13:01.302Z,98766.20
2019-05-09T19:15:32.285Z,98771.09
2019-05-09T19:18:15.445Z,98767.38
2019-05-09T19:20:52.633Z,98766.97
2019-05-09T19:23:22.117Z,98758.98
2019-05-09T19:25:53.087Z,98760.19
2019-05-09T19:28:24.161Z,98763.31
2019-05-09T19:30:53.895Z,98764.36
2019-05-09T19:33:25.811Z,98767.93
2019-05-09T19:35:55.274Z,98764.52
2019-05-09T19:38:24.827Z,98758.12
2019-05-09T19:40:54.312Z,98756.52
2019-05-09T19:43:23.785Z,98752.63
2019-05-09T19:45:53.255Z,98754.86
2019-05-09T19:48:22.733Z,98755.05
2019-05-09T19:50:52.146Z,98752.77
2019-05-09T19:53:21.636Z,98747.27
2019-05-09T19:55:51.191Z,98753.20
2019-05-09T19:58:20.766Z,98747.70
2019-05-09T20:00:50.158Z,98737.05
2019-05-09T20:03:19.604Z,98737.19
2019-05-09T20:05:49.078Z,98735.16
2019-05-09T20:08:18.476Z,98741.79
2019-05-09T20:13:38.273Z,98743.58
2019-05-09T20:16:07.724Z,98748.84
2019-05-09T20:18:37.157Z,98743.22
2019-05-09T20:21:06.607Z,98744.33
2019-05-09T20:23:36.023Z,98744.33
2019-05-09T20:26:05.504Z,98748.02
2019-05-09T20:28:35.015Z,98747.18
2019-05-09T20:31:04.377Z,98746.75
2019-05-09T20:33:33.767Z,98745.70
2019-05-09T20:36:03.171Z,98747.80
2019-05-09T20:38:32.735Z,98742.57
2019-05-09T20:41:02.379Z,98749.39
2019-05-09T20:43:32.017Z,98747.09
2019-05-09T20:46:01.549Z,98747.55
2019-05-09T20:48:31.267Z,98748.19
2019-05-09T20:51:00.828Z,98745.58
2019-05-09T20:53:30.400Z,98744.90
2019-05-09T20:56:00.026Z,98748.70
2019-05-09T20:58:29.648Z,98737.64
2019-05-09T21:00:59.261Z,98742.70
2019-05-09T21:03:28.816Z,98746.12
2019-05-09T21:05:58.384Z,98741.44
2019-05-09T21:08:28.009Z,98744.80
2019-05-09T21:10:57.582Z,98743.75
2019-05-09T21:13:27.147Z,98747.48
2019-05-09T21:15:56.788Z,98742.27
2019-05-09T21:18:26.475Z,98746.23
2019-05-09T21:20:56.099Z,98745.45
2019-05-09T21:23:25.721Z,98748.92
2019-05-09T21:25:55.341Z,98752.17
2019-05-09T21:28:25.021Z,98750.58
2019-05-09T21:30:54.559Z,98748.31
2019-05-09T21:33:24.243Z,98751.83
2019-05-09T21:35:53.682Z,98753.64
2019-05-09T21:38:23.085Z,98749.19
2019-05-09T21:40:52.509Z,98749.91
2019-05-09T21:43:21.939Z,98752.22
2019-05-09T21:45:51.377Z,98745.40
2019-05-09T21:48:20.755Z,98748.95
2019-05-09T21:50:50.124Z,98749.11
2019-05-09T21:53:19.593Z,98758.73
2019-05-09T21:55:49.016Z,98762.69
2019-05-09T21:58:18.401Z,98765.11
2019-05-09T22:00:50.762Z,98763.34
2019-05-09T22:03:20.695Z,98767.52
2019-05-09T22:05:50.071Z,98772.23
2019-05-09T22:08:19.457Z,98776.69
2019-05-09T22:10:48.831Z,98772.39
2019-05-09T22:13:18.285Z,98774.31
2019-05-09T22:15:47.929Z,98775.97
2019-05-09T22:18:17.382Z,98778.64
2019-05-09T22:20:46.837Z,98782.23
2019-05-09T22:23:16.219Z,98785.16
2019-05-09T22:25:45.628Z,98778.94
2019-05-09T22:28:15.097Z,98784.32
2019-05-09T22:30:44.542Z,98782.60
2019-05-09T22:33:13.976Z,98790.71
2019-05-09T22:35:43.360Z,98797.91
2019-05-09T22:38:12.704Z,98797.69
2019-05-09T22:40:42.174Z,98792.03
2019-05-09T22:43:11.533Z,98792.26
2019-05-09T22:45:41.002Z,98789.73
2019-05-09T22:48:10.440Z,98789.50
2019-05-09T22:50:39.791Z,98783.81
2019-05-09T22:53:09.183Z,98780.94
2019-05-09T22:55:38.576Z,98770.39
2019-05-09T22:58:07.987Z,98775.44
2019-05-09T23:00:37.472Z,98772.42
2019-05-09T23:03:06.871Z,98765.45
2019-05-09T23:05:36.299Z,98767.94
2019-05-09T23:08:05.666Z,98768.84
2019-05-09T23:10:35.093Z,98768.75
2019-05-09T23:13:04.561Z,98765.63
2019-05-09T23:15:34.004Z,98761.24
2019-05-09T23:18:03.437Z,98757.86
2019-05-09T23:23:22.421Z,98761.03
2019-05-09T23:25:51.872Z,98759.37
2019-05-09T23:28:21.329Z,98757.48
2019-05-09T23:30:52.340Z,98755.53
2019-05-09T23:33:22.644Z,98763.22
2019-05-09T23:35:52.058Z,98754.41
2019-05-09T23:38:21.514Z,98754.18
2019-05-09T23:40:50.893Z,98755.30
2019-05-09T23:43:20.314Z,98743.35
2019-05-09T23:45:49.677Z,98747.34
2019-05-09T23:48:19.059Z,98745.45
2019-05-09T23:50:48.458Z,98750.20
2019-05-09T23:53:21.199Z,98749.57
2019-05-09T23:56:08.306Z,98747.83
2019-05-09T23:58:55.695Z,98750.47
